createdAt,value
2019-02-20T00:00:51.551Z,21.63
2019-02-20T00:03:20.636Z,19.87
2019-02-20T00:05:49.775Z,22.33
2019-02-20T00:08:18.868Z,20.20
2019-02-20T00:10:47.934Z,21.53
2019-02-20T00:13:17.031Z,21.67
2019-02-20T00:15:46.440Z,20.10
2019-02-20T00:18:15.509Z,17.60
2019-02-20T00:20:44.603Z,21.80
2019-02-20T00:23:13.676Z,24.77
2019-02-20T00:25:42.765Z,20.73
2019-02-20T00:28:11.829Z,19.77
2019-02-20T00:30:40.910Z,19.20
2019-02-20T00:33:09.987Z,21.57
2019-02-20T00:35:39.156Z,16.47
2019-02-20T00:38:08.233Z,19.40
2019-02-20T00:40:37.323Z,24.17
2019-02-20T00:43:07.371Z,26.83
2019-02-20T00:45:58.859Z,18.00
2019-02-20T00:49:02.236Z,22.90
2019-02-20T00:51:53.575Z,19.33
2019-02-20T00:54:22.649Z,22.43
2019-02-20T00:56:51.735Z,32.23
2019-02-20T00:59:20.811Z,19.80
2019-02-20T01:01:49.891Z,24.37
2019-02-20T01:04:18.962Z,17.10
2019-02-20T01:06:48.051Z,17.43
2019-02-20T01:09:17.323Z,20.63
2019-02-20T01:11:46.391Z,20.70
2019-02-20T01:14:15.476Z,19.10
2019-02-20T01:16:44.531Z,20.57
2019-02-20T01:19:13.615Z,21.10
2019-02-20T01:21:42.689Z,22.87
2019-02-20T01:24:11.822Z,19.57
2019-02-20T01:26:40.890Z,14.27
2019-02-20T01:29:09.977Z,24.97
2019-02-20T01:31:39.039Z,17.67
2019-02-20T01:34:08.119Z,18.30
2019-02-20T01:36:37.195Z,15.00
2019-02-20T01:39:07.258Z,22.93
2019-02-20T01:41:36.489Z,22.13
2019-02-20T01:44:05.570Z,19.07
2019-02-20T01:46:34.638Z,18.73
2019-02-20T01:49:03.726Z,17.60
2019-02-20T01:51:32.802Z,14.67
2019-02-20T01:54:01.881Z,16.33
2019-02-20T01:56:30.946Z,20.70
2019-02-20T01:59:00.050Z,18.50
2019-02-20T02:01:29.187Z,24.20
2019-02-20T02:03:58.256Z,13.73
2019-02-20T02:06:27.415Z,18.10
2019-02-20T02:08:56.503Z,16.37
2019-02-20T02:11:25.906Z,15.87
2019-02-20T02:13:54.988Z,16.17
2019-02-20T02:16:24.058Z,12.67
2019-02-20T02:18:53.118Z,11.90
2019-02-20T02:21:22.205Z,14.00
2019-02-20T02:23:51.274Z,19.07
2019-02-20T02:26:20.358Z,16.90
2019-02-20T02:28:49.420Z,15.80
2019-02-20T02:31:18.518Z,16.90
2019-02-20T02:33:47.584Z,21.70
2019-02-20T02:36:16.698Z,14.27
2019-02-20T02:38:45.772Z,16.33
2019-02-20T02:41:14.843Z,14.83
2019-02-20T02:43:43.958Z,21.73
2019-02-20T02:46:13.091Z,21.10
2019-02-20T02:48:42.185Z,18.90
2019-02-20T02:51:11.265Z,20.77
2019-02-20T02:53:40.352Z,10.57
2019-02-20T02:56:09.423Z,16.33
2019-02-20T02:58:38.859Z,11.63
2019-02-20T03:01:07.924Z,22.10
2019-02-20T03:03:37.018Z,18.87
2019-02-20T03:06:06.336Z,18.23
2019-02-20T03:08:35.467Z,17.20
2019-02-20T03:11:04.605Z,15.67
2019-02-20T03:13:33.711Z,17.40
2019-02-20T03:16:02.778Z,22.73
2019-02-20T03:18:31.880Z,17.43
2019-02-20T03:21:00.951Z,17.27
2019-02-20T03:23:30.026Z,24.90
2019-02-20T03:25:59.411Z,21.53
2019-02-20T03:28:28.491Z,22.87
2019-02-20T03:30:57.585Z,14.63
2019-02-20T03:33:26.704Z,15.27
2019-02-20T03:35:55.804Z,25.57
2019-02-20T03:38:30.365Z,19.60
2019-02-20T03:40:55.668Z,21.63
2019-02-20T03:43:24.759Z,24.67
2019-02-20T03:45:53.970Z,20.17
2019-02-20T03:48:23.120Z,24.60
2019-02-20T03:50:52.219Z,28.93
2019-02-20T03:53:21.290Z,23.20
2019-02-20T03:55:50.391Z,24.37
2019-02-20T03:58:19.488Z,27.43
2019-02-20T04:00:48.566Z,19.63
2019-02-20T04:03:17.665Z,23.40
2019-02-20T04:05:46.785Z,27.87
2019-02-20T04:08:16.174Z,22.67
2019-02-20T04:10:45.256Z,25.60
2019-02-20T04:13:14.360Z,27.77
2019-02-20T04:15:43.478Z,20.37
2019-02-20T04:18:14.006Z,24.87
2019-02-20T04:20:43.090Z,22.57
2019-02-20T04:23:13.159Z,27.97
2019-02-20T04:25:42.235Z,26.00
2019-02-20T04:28:11.332Z,25.30
2019-02-20T04:30:40.413Z,31.27
2019-02-20T04:33:09.801Z,27.70
2019-02-20T04:35:38.888Z,26.40
2019-02-20T04:38:07.979Z,28.17
2019-02-20T04:40:37.064Z,28.20
2019-02-20T04:43:06.170Z,21.20
2019-02-20T04:45:37.871Z,29.17
2019-02-20T04:48:06.983Z,25.27
2019-02-20T04:50:36.055Z,28.57
2019-02-20T04:53:05.181Z,28.23
2019-02-20T04:55:34.514Z,25.83
2019-02-20T04:58:28.683Z,27.10
2019-02-20T05:00:58.098Z,26.73
2019-02-20T05:03:27.225Z,24.53
2019-02-20T05:05:56.312Z,28.73
2019-02-20T05:08:25.687Z,23.63
2019-02-20T05:10:54.786Z,23.10
2019-02-20T05:13:23.881Z,27.10
2019-02-20T05:15:52.979Z,29.13
2019-02-20T05:18:22.406Z,26.53
2019-02-20T05:20:51.495Z,29.17
2019-02-20T05:23:20.585Z,23.13
2019-02-20T05:25:49.672Z,29.83
2019-02-20T05:28:18.788Z,30.60
2019-02-20T05:30:48.180Z,30.63
2019-02-20T05:33:17.269Z,20.60
2019-02-20T05:35:46.398Z,27.13
2019-02-20T05:38:15.542Z,25.97
2019-02-20T05:40:44.709Z,23.40
2019-02-20T05:43:13.946Z,26.10
2019-02-20T05:45:43.080Z,23.20
2019-02-20T05:48:12.248Z,29.87
2019-02-20T05:50:41.344Z,26.33
2019-02-20T05:53:10.437Z,25.40
2019-02-20T05:55:39.517Z,34.80
2019-02-20T05:58:08.622Z,30.70
2019-02-20T06:00:38.686Z,25.33
2019-02-20T06:03:07.778Z,26.27
2019-02-20T06:05:36.862Z,28.90
2019-02-20T06:08:06.940Z,27.13
2019-02-20T06:10:36.068Z,27.20
2019-02-20T06:13:05.300Z,31.97
2019-02-20T06:15:34.375Z,26.90
2019-02-20T06:18:03.510Z,32.33
2019-02-20T06:20:32.608Z,30.43
2019-02-20T06:23:01.757Z,33.60
2019-02-20T06:25:30.844Z,28.77
2019-02-20T06:28:00.018Z,26.57
2019-02-20T06:30:29.135Z,31.00
2019-02-20T06:32:58.237Z,37.73
2019-02-20T06:35:27.333Z,27.10
2019-02-20T06:37:56.451Z,21.57
2019-02-20T06:40:26.205Z,36.00
2019-02-20T06:42:56.261Z,31.17
2019-02-20T06:45:25.355Z,27.30
2019-02-20T06:47:54.446Z,39.93
2019-02-20T06:50:23.843Z,32.17
2019-02-20T06:52:52.923Z,28.80
2019-02-20T06:55:22.019Z,43.23
2019-02-20T06:57:51.103Z,32.20
2019-02-20T07:00:20.253Z,30.10
2019-02-20T07:02:49.321Z,29.97
2019-02-20T07:05:31.598Z,27.97
2019-02-20T07:08:25.869Z,31.23
2019-02-20T07:11:12.999Z,33.57
2019-02-20T07:13:45.482Z,29.20
2019-02-20T07:16:32.003Z,26.07
2019-02-20T07:19:13.756Z,32.83
2019-02-20T07:22:08.202Z,29.43
2019-02-20T07:24:52.070Z,29.47
2019-02-20T07:27:39.297Z,30.40
2019-02-20T07:30:09.799Z,31.33
2019-02-20T07:32:38.903Z,29.70
2019-02-20T07:35:08.933Z,31.90
2019-02-20T07:37:38.135Z,35.00
2019-02-20T07:40:10.963Z,32.87
2019-02-20T07:42:40.073Z,30.07
2019-02-20T07:45:10.515Z,30.83
2019-02-20T07:47:40.382Z,31.13
2019-02-20T07:50:10.455Z,28.20
2019-02-20T07:52:39.743Z,35.30
2019-02-20T07:55:13.351Z,29.87
2019-02-20T07:57:39.881Z,30.77
2019-02-20T08:00:10.400Z,28.57
2019-02-20T08:02:39.553Z,31.43
2019-02-20T08:05:08.793Z,25.67
2019-02-20T08:07:37.882Z,28.87
2019-02-20T08:10:08.027Z,27.30
2019-02-20T08:12:37.116Z,31.67
2019-02-20T08:15:06.741Z,29.63
2019-02-20T08:17:35.986Z,34.27
2019-02-20T08:20:06.563Z,33.67
2019-02-20T08:22:35.645Z,30.40
2019-02-20T08:25:05.081Z,31.63
2019-02-20T08:27:34.227Z,35.60
2019-02-20T08:30:03.807Z,34.37
2019-02-20T08:32:33.051Z,30.33
2019-02-20T08:35:02.146Z,34.53
2019-02-20T08:37:31.249Z,45.33
2019-02-20T08:40:00.429Z,31.20
2019-02-20T08:42:29.603Z,32.60
2019-02-20T08:44:58.687Z,25.00
2019-02-20T08:47:27.788Z,35.60
2019-02-20T08:49:56.891Z,27.40
2019-02-20T08:52:26.047Z,40.67
2019-02-20T08:54:55.138Z,27.07
2019-02-20T08:57:24.236Z,24.50
2019-02-20T08:59:54.163Z,27.93
2019-02-20T09:02:23.339Z,22.40
2019-02-20T09:04:52.419Z,26.70
2019-02-20T09:07:21.520Z,29.57
2019-02-20T09:09:50.619Z,28.43
2019-02-20T09:12:19.710Z,26.07
2019-02-20T09:14:48.795Z,29.17
2019-02-20T09:17:17.957Z,28.20
2019-02-20T09:19:47.036Z,37.83
2019-02-20T09:22:16.127Z,31.77
2019-02-20T09:24:45.208Z,29.07
2019-02-20T09:27:14.318Z,34.50
2019-02-20T09:29:43.403Z,30.93
2019-02-20T09:32:12.819Z,28.53
2019-02-20T09:34:41.905Z,31.40
2019-02-20T09:37:11.092Z,23.83
2019-02-20T09:39:40.175Z,35.67
2019-02-20T09:42:19.395Z,35.63
2019-02-20T09:44:49.035Z,32.33
2019-02-20T09:47:19.647Z,26.80
2019-02-20T09:49:48.723Z,36.07
2019-02-20T09:52:18.111Z,24.03
2019-02-20T09:54:47.213Z,31.60
2019-02-20T09:57:16.293Z,28.30
2019-02-20T09:59:46.378Z,40.63
2019-02-20T10:02:15.550Z,34.37
2019-02-20T10:04:45.729Z,27.73
2019-02-20T10:07:14.837Z,27.73
2019-02-20T10:09:44.050Z,33.30
2019-02-20T10:12:13.146Z,33.13
2019-02-20T10:14:42.531Z,26.80
2019-02-20T10:17:11.633Z,30.33
2019-02-20T10:19:40.739Z,31.00
2019-02-20T10:22:09.827Z,32.47
2019-02-20T10:24:39.902Z,30.10
2019-02-20T10:27:10.037Z,24.33
2019-02-20T10:29:39.347Z,32.40
2019-02-20T10:32:08.511Z,31.70
2019-02-20T10:34:37.636Z,33.43
2019-02-20T10:37:06.941Z,32.10
2019-02-20T10:39:36.020Z,32.77
2019-02-20T10:42:05.290Z,36.47
2019-02-20T10:44:34.379Z,31.10
2019-02-20T10:47:04.555Z,34.73
2019-02-20T10:49:33.648Z,29.80
2019-02-20T10:52:02.746Z,32.37
2019-02-20T10:54:31.836Z,28.60
2019-02-20T10:57:00.935Z,27.53
2019-02-20T10:59:30.011Z,37.97
2019-02-20T11:01:59.123Z,27.40
2019-02-20T11:04:30.833Z,40.50
2019-02-20T11:07:00.188Z,27.83
2019-02-20T11:09:29.303Z,26.13
2019-02-20T11:11:58.406Z,30.70
2019-02-20T11:14:27.643Z,25.93
2019-02-20T11:16:56.740Z,34.90
2019-02-20T11:19:25.845Z,30.37
2019-02-20T11:21:54.927Z,30.83
2019-02-20T11:24:24.077Z,33.47
2019-02-20T11:26:55.161Z,30.73
2019-02-20T11:29:23.995Z,36.37
2019-02-20T11:31:53.063Z,29.30
2019-02-20T11:34:22.335Z,37.27
2019-02-20T11:36:51.423Z,34.47
2019-02-20T11:39:20.605Z,33.37
2019-02-20T11:41:49.733Z,34.67
2019-02-20T11:44:21.047Z,35.37
2019-02-20T11:46:49.634Z,38.67
2019-02-20T11:49:18.739Z,32.23
2019-02-20T11:51:47.840Z,39.37
2019-02-20T11:54:18.030Z,32.83
2019-02-20T11:56:47.119Z,29.60
2019-02-20T11:59:16.222Z,28.97
2019-02-20T12:01:45.347Z,29.20
2019-02-20T12:04:14.427Z,26.67
2019-02-20T12:06:43.531Z,28.53
2019-02-20T12:09:12.627Z,32.57
2019-02-20T12:11:41.735Z,29.33
2019-02-20T12:14:10.842Z,29.77
2019-02-20T12:16:39.939Z,31.80
2019-02-20T12:19:09.086Z,33.93
2019-02-20T12:21:38.464Z,28.13
2019-02-20T12:24:07.539Z,29.93
2019-02-20T12:26:36.767Z,31.47
2019-02-20T12:29:05.847Z,29.90
2019-02-20T12:31:34.954Z,37.30
2019-02-20T12:34:04.048Z,35.40
2019-02-20T12:36:33.438Z,41.30
2019-02-20T12:39:03.007Z,40.43
2019-02-20T12:41:33.717Z,37.13
2019-02-20T12:44:02.856Z,46.37
2019-02-20T12:46:31.931Z,46.00
2019-02-20T12:49:01.113Z,40.73
2019-02-20T12:51:30.186Z,42.87
2019-02-20T12:53:59.597Z,40.13
2019-02-20T12:56:28.670Z,41.33
2019-02-20T12:59:07.461Z,37.53
2019-02-20T13:01:29.792Z,55.13
2019-02-20T13:03:58.886Z,42.83
2019-02-20T13:06:29.751Z,48.17
2019-02-20T13:08:58.783Z,42.30
2019-02-20T13:11:27.879Z,44.40
2019-02-20T13:13:56.991Z,52.97
2019-02-20T13:16:26.096Z,47.03
2019-02-20T13:19:14.456Z,44.70
2019-02-20T13:21:43.573Z,44.80
2019-02-20T13:24:13.056Z,55.33
2019-02-20T13:26:42.221Z,46.07
2019-02-20T13:29:11.296Z,43.23
2019-02-20T13:31:40.784Z,45.37
2019-02-20T13:34:09.867Z,44.23
2019-02-20T13:36:38.980Z,45.10
2019-02-20T13:39:08.364Z,42.43
2019-02-20T13:41:39.095Z,44.67
2019-02-20T13:44:08.266Z,43.80
2019-02-20T13:46:37.387Z,39.00
2019-02-20T13:49:06.483Z,36.43
2019-02-20T13:51:35.984Z,46.17
2019-02-20T13:54:05.162Z,35.43
2019-02-20T13:56:34.260Z,35.30
2019-02-20T13:59:03.360Z,35.70
2019-02-20T14:01:32.524Z,35.30
2019-02-20T14:04:01.627Z,31.43
2019-02-20T14:06:32.055Z,32.87
2019-02-20T14:09:01.408Z,34.57
2019-02-20T14:11:32.131Z,33.70
2019-02-20T14:14:01.942Z,31.00
2019-02-20T14:16:31.021Z,34.00
2019-02-20T14:19:00.195Z,42.70
2019-02-20T14:21:29.555Z,35.87
2019-02-20T14:23:58.660Z,33.33
2019-02-20T14:26:27.771Z,30.17
2019-02-20T14:28:56.905Z,35.10
2019-02-20T14:31:25.990Z,29.70
2019-02-20T14:33:55.074Z,35.57
2019-02-20T14:36:24.179Z,33.93
2019-02-20T14:38:53.271Z,35.00
2019-02-20T14:41:22.379Z,38.73
2019-02-20T14:43:51.481Z,29.00
2019-02-20T14:46:20.675Z,33.77
2019-02-20T14:48:49.758Z,32.43
2019-02-20T14:51:19.026Z,32.33
2019-02-20T14:53:48.480Z,32.93
2019-02-20T14:56:17.579Z,43.00
2019-02-20T14:58:46.761Z,29.53
2019-02-20T15:01:15.852Z,36.83
2019-02-20T15:03:44.927Z,36.53
2019-02-20T15:06:14.024Z,35.23
2019-02-20T15:08:43.783Z,35.43
2019-02-20T15:11:13.219Z,33.60
2019-02-20T15:13:42.515Z,36.37
2019-02-20T15:16:11.607Z,32.97
2019-02-20T15:18:40.708Z,35.27
2019-02-20T15:21:09.818Z,32.27
2019-02-20T15:23:38.983Z,39.03
2019-02-20T15:26:08.351Z,41.10
2019-02-20T15:28:37.443Z,34.13
2019-02-20T15:31:06.523Z,28.70
2019-02-20T15:33:35.628Z,29.40
2019-02-20T15:36:04.715Z,35.67
2019-02-20T15:38:33.810Z,27.50
2019-02-20T15:41:03.270Z,27.13
2019-02-20T15:43:32.366Z,29.23
2019-02-20T15:46:01.454Z,29.00
2019-02-20T15:48:30.553Z,27.80
2019-02-20T15:50:59.631Z,25.97
2019-02-20T15:53:28.746Z,30.37
2019-02-20T15:55:58.535Z,24.80
2019-02-20T15:58:27.707Z,21.90
2019-02-20T16:00:56.871Z,25.03
2019-02-20T16:03:25.967Z,28.07
2019-02-20T16:05:55.042Z,24.70
2019-02-20T16:08:24.925Z,27.03
2019-02-20T16:10:55.199Z,29.07
2019-02-20T16:13:24.707Z,25.43
2019-02-20T16:15:53.953Z,23.83
2019-02-20T16:18:23.284Z,23.67
2019-02-20T16:20:52.518Z,24.87
2019-02-20T16:23:21.604Z,20.17
2019-02-20T16:25:50.755Z,22.70
2019-02-20T16:28:20.264Z,19.20
2019-02-20T16:30:49.399Z,17.97
2019-02-20T16:33:18.531Z,16.03
2019-02-20T16:35:48.473Z,23.47
2019-02-20T16:38:18.007Z,13.20
2019-02-20T16:40:47.453Z,17.27
2019-02-20T16:43:16.989Z,18.70
2019-02-20T16:45:46.375Z,23.00
2019-02-20T16:48:15.587Z,13.00
2019-02-20T16:50:44.948Z,16.23
2019-02-20T16:53:15.467Z,9.73
2019-02-20T16:55:44.590Z,12.17
2019-02-20T16:58:13.857Z,15.00
2019-02-20T17:00:43.108Z,13.40
2019-02-20T17:03:12.209Z,17.10
2019-02-20T17:05:41.504Z,14.40
2019-02-20T17:08:10.805Z,10.57
2019-02-20T17:10:39.977Z,15.30
2019-02-20T17:13:09.159Z,14.90
2019-02-20T17:15:40.157Z,11.90
2019-02-20T17:18:09.264Z,8.77
2019-02-20T17:20:38.472Z,12.10
2019-02-20T17:23:07.689Z,11.03
2019-02-20T17:25:37.013Z,9.80
2019-02-20T17:28:06.258Z,12.43
2019-02-20T17:30:35.574Z,8.90
2019-02-20T17:33:04.760Z,8.43
2019-02-20T17:35:33.987Z,9.73
2019-02-20T17:38:03.163Z,8.13
2019-02-20T17:40:32.766Z,10.50
2019-02-20T17:43:01.872Z,11.90
2019-02-20T17:45:31.387Z,11.37
2019-02-20T17:48:00.579Z,10.47
2019-02-20T17:50:29.709Z,11.03
2019-02-20T17:52:58.923Z,9.40
2019-02-20T17:55:28.168Z,11.17
2019-02-20T17:57:57.430Z,10.43
2019-02-20T18:00:28.877Z,5.10
2019-02-20T18:02:58.220Z,10.60
2019-02-20T18:05:27.344Z,11.67
2019-02-20T18:07:56.788Z,8.47
2019-02-20T18:10:25.982Z,10.93
2019-02-20T18:12:55.216Z,11.40
2019-02-20T18:15:24.704Z,9.20
2019-02-20T18:17:53.885Z,13.13
2019-02-20T18:20:25.040Z,6.20
2019-02-20T18:22:54.123Z,9.90
2019-02-20T18:25:23.556Z,8.73
2019-02-20T18:27:52.925Z,10.23
2019-02-20T18:30:22.418Z,7.50
2019-02-20T18:32:51.711Z,7.30
2019-02-20T18:35:20.919Z,7.60
2019-02-20T18:37:50.413Z,12.77
2019-02-20T18:40:19.554Z,9.00
2019-02-20T18:42:48.838Z,11.93
2019-02-20T18:45:18.042Z,7.90
2019-02-20T18:47:48.493Z,7.20
2019-02-20T18:50:17.771Z,9.10
2019-02-20T18:52:47.223Z,9.93
2019-02-20T18:55:16.409Z,9.03
2019-02-20T18:57:45.509Z,8.07
2019-02-20T19:00:14.984Z,7.77
2019-02-20T19:02:44.407Z,9.23
2019-02-20T19:05:13.762Z,12.10
2019-02-20T19:07:42.974Z,12.77
2019-02-20T19:10:14.278Z,10.73
2019-02-20T19:12:50.796Z,19.87
2019-02-20T19:15:28.521Z,8.57
2019-02-20T19:18:23.153Z,13.90
2019-02-20T19:21:10.081Z,22.90
2019-02-20T19:23:57.220Z,12.97
2019-02-20T19:26:48.780Z,11.13
2019-02-20T19:29:25.431Z,10.27
2019-02-20T19:32:12.538Z,12.53
2019-02-20T19:34:46.023Z,13.90
2019-02-20T19:37:27.852Z,11.00
2019-02-20T19:40:10.216Z,8.17
2019-02-20T19:43:01.787Z,11.17
2019-02-20T19:45:37.497Z,14.97
2019-02-20T19:48:38.357Z,7.93
2019-02-20T19:51:15.126Z,12.17
2019-02-20T19:53:50.407Z,14.30
2019-02-20T19:56:44.193Z,8.07
2019-02-20T19:59:31.570Z,13.57
2019-02-20T20:02:27.915Z,14.57
2019-02-20T20:05:06.735Z,15.67
2019-02-20T20:07:55.280Z,8.63
2019-02-20T20:10:29.229Z,13.27
2019-02-20T20:13:04.544Z,9.93
2019-02-20T20:15:41.386Z,9.60
2019-02-20T20:18:23.768Z,28.03
2019-02-20T20:20:59.397Z,11.07
2019-02-20T20:24:00.145Z,8.50
2019-02-20T20:26:40.988Z,9.63
2019-02-20T20:29:28.785Z,15.37
2019-02-20T20:32:02.375Z,14.63
2019-02-20T20:35:03.075Z,12.03
2019-02-20T20:37:35.600Z,15.83
2019-02-20T20:40:16.086Z,14.23
2019-02-20T20:42:51.924Z,15.87
2019-02-20T20:45:28.229Z,15.07
2019-02-20T20:48:12.326Z,24.43
2019-02-20T20:51:05.575Z,29.23
2019-02-20T20:53:57.883Z,24.83
2019-02-20T20:56:57.252Z,28.87
2019-02-20T20:59:24.445Z,30.00
2019-02-20T21:01:56.453Z,24.83
2019-02-20T21:04:43.643Z,25.27
2019-02-20T21:07:19.703Z,29.43
2019-02-20T21:10:08.055Z,18.00
2019-02-20T21:12:42.221Z,17.40
2019-02-20T21:15:20.990Z,8.60
2019-02-20T21:17:57.481Z,12.00
2019-02-20T21:20:49.074Z,22.13
2019-02-20T21:23:51.024Z,14.60
2019-02-20T21:26:49.177Z,14.10
2019-02-20T21:29:39.101Z,18.80
2019-02-20T21:32:33.399Z,13.73
2019-02-20T21:35:15.286Z,13.50
2019-02-20T21:38:16.157Z,10.70
2019-02-20T21:41:04.562Z,20.00
2019-02-20T21:43:56.192Z,11.33
2019-02-20T21:46:35.662Z,22.90
2019-02-20T21:49:09.093Z,21.80
2019-02-20T21:52:00.445Z,19.60
2019-02-20T21:54:43.243Z,15.70
2019-02-20T21:57:18.161Z,11.33
2019-02-20T22:00:05.340Z,15.47
2019-02-20T22:02:55.326Z,14.23
2019-02-20T22:05:34.410Z,16.70
2019-02-20T22:08:13.611Z,15.93
2019-02-20T22:10:49.153Z,15.50
2019-02-20T22:13:40.542Z,13.30
2019-02-20T22:16:28.863Z,20.57
2019-02-20T22:19:05.605Z,18.30
2019-02-20T22:21:48.367Z,20.30
2019-02-20T22:24:35.438Z,15.10
2019-02-20T22:27:22.560Z,22.30
2019-02-20T22:30:29.350Z,18.10
2019-02-20T22:33:23.607Z,20.13
2019-02-20T22:36:11.024Z,12.00
2019-02-20T22:38:52.190Z,14.43
2019-02-20T22:41:49.907Z,18.10
2019-02-20T22:44:31.170Z,17.53
2019-02-20T22:47:04.556Z,18.13
2019-02-20T22:49:41.046Z,13.37
2019-02-20T22:52:18.618Z,19.10
2019-02-20T22:55:03.441Z,20.23
2019-02-20T22:57:48.482Z,23.73
2019-02-20T23:00:41.121Z,20.17
2019-02-20T23:03:18.367Z,18.83
2019-02-20T23:06:13.110Z,21.53
2019-02-20T23:09:00.241Z,15.00
2019-02-20T23:12:07.123Z,16.80
2019-02-20T23:14:56.118Z,17.47
2019-02-20T23:17:27.133Z,23.17
2019-02-20T23:19:56.290Z,19.67
2019-02-20T23:22:25.556Z,15.40
2019-02-20T23:24:54.671Z,16.27
2019-02-20T23:27:24.226Z,18.47
2019-02-20T23:29:53.613Z,16.43
2019-02-20T23:32:22.711Z,14.93
2019-02-20T23:34:51.794Z,16.83
2019-02-20T23:37:21.966Z,18.30
2019-02-20T23:39:51.060Z,19.33
2019-02-20T23:42:20.440Z,16.70
2019-02-20T23:44:49.835Z,19.97
2019-02-20T23:47:18.940Z,23.43
2019-02-20T23:49:48.639Z,19.93
2019-02-20T23:52:17.726Z,18.97
2019-02-20T23:54:46.806Z,22.53
2019-02-20T23:57:16.216Z,22.27
2019-02-20T23:59:45.394Z,18.13
